createdAt,value
2022-12-31T00:00:12.970Z,100278.84
2022-12-31T00:02:40.448Z,100281.19
2022-12-31T00:05:08.301Z,100272.84
2022-12-31T00:10:03.948Z,100280.63
2022-12-31T00:12:31.786Z,100279.31
2022-12-31T00:14:59.552Z,100287.91
2022-12-31T00:17:27.075Z,100290.03
2022-12-31T00:19:54.760Z,100290.03
2022-12-31T00:22:22.312Z,100290.53
2022-12-31T00:24:49.778Z,100298.91
2022-12-31T00:27:17.223Z,100293.69
2022-12-31T00:29:44.988Z,100303.06
2022-12-31T00:32:12.629Z,100298.91
2022-12-31T00:34:39.954Z,100302.81
2022-12-31T00:37:07.876Z,100303.09
2022-12-31T00:39:35.569Z,100317.16
2022-12-31T00:42:03.228Z,100330.72
2022-12-31T00:44:31.082Z,100326.78
2022-12-31T00:46:58.495Z,100326.06
2022-12-31T00:49:26.054Z,100325.28
2022-12-31T00:51:53.568Z,100327.38
2022-12-31T00:54:21.220Z,100323.69
2022-12-31T00:56:48.721Z,100325.53
2022-12-31T00:59:16.237Z,100328.66
2022-12-31T01:01:44.234Z,100329.69
2022-12-31T01:04:15.080Z,100334.66
2022-12-31T01:06:43.752Z,100330.25
2022-12-31T01:09:12.258Z,100322.97
2022-12-31T01:11:39.673Z,100322.97
2022-12-31T01:14:16.089Z,100334.41
2022-12-31T01:16:46.086Z,100334.97
2022-12-31T01:19:18.800Z,100332.59
2022-12-31T01:21:47.585Z,100330.78
2022-12-31T01:24:15.910Z,100334.44
2022-12-31T01:26:43.878Z,100329.75
2022-12-31T01:29:11.911Z,100328.44
2022-12-31T01:31:39.885Z,100343.31
2022-12-31T01:34:08.087Z,100346.44
2022-12-31T01:36:37.091Z,100349.28
2022-12-31T01:39:06.137Z,100343.06
2022-12-31T01:41:37.811Z,100350.34
2022-12-31T01:44:14.092Z,100349.28
2022-12-31T01:46:53.262Z,100344.84
2022-12-31T01:49:26.815Z,100345.41
2022-12-31T01:52:18.988Z,100346.44
2022-12-31T01:55:00.128Z,100341.72
2022-12-31T01:57:28.264Z,100343.81
2022-12-31T01:59:57.110Z,100341.94
2022-12-31T02:02:25.097Z,100348.97
2022-12-31T02:04:54.988Z,100343.22
2022-12-31T02:07:23.144Z,100352.34
2022-12-31T02:09:50.820Z,100342.16
2022-12-31T02:12:18.130Z,100348.94
2022-12-31T02:14:49.040Z,100349.97
2022-12-31T02:17:37.909Z,100352.56
2022-12-31T02:20:26.931Z,100342.47
2022-12-31T02:23:00.688Z,100343.03
2022-12-31T02:25:57.623Z,100341.16
2022-12-31T02:28:38.044Z,100355.75
2022-12-31T02:31:25.119Z,100352.13
2022-12-31T02:34:03.834Z,100355.75
2022-12-31T02:36:35.112Z,100358.34
2022-12-31T02:39:04.115Z,100356.22
2022-12-31T02:41:49.834Z,100352.53
2022-12-31T02:44:31.269Z,100358.75
2022-12-31T02:46:58.699Z,100360.31
2022-12-31T02:49:34.109Z,100346.75
2022-12-31T02:52:10.166Z,100344.69
2022-12-31T02:55:05.088Z,100339.22
2022-12-31T02:57:32.705Z,100335.03
2022-12-31T03:00:25.154Z,100319.63
2022-12-31T03:02:53.230Z,100331.66
2022-12-31T03:05:24.950Z,100333.72
2022-12-31T03:07:52.638Z,100329.81
2022-12-31T03:10:20.065Z,100334.72
2022-12-31T03:12:48.347Z,100334.19
2022-12-31T03:15:24.735Z,100322.72
2022-12-31T03:18:17.029Z,100331.31
2022-12-31T03:21:07.652Z,100335.75
2022-12-31T03:23:37.078Z,100340.97
2022-12-31T03:26:11.852Z,100331.09
2022-12-31T03:28:41.260Z,100331.63
2022-12-31T03:31:09.254Z,100330.31
2022-12-31T03:33:40.194Z,100327.47
2022-12-31T03:36:11.123Z,100324.31
2022-12-31T03:38:38.956Z,100315.78
2022-12-31T03:41:06.650Z,100318.16
2022-12-31T03:43:34.203Z,100324.94
2022-12-31T03:46:02.031Z,100327.53
2022-12-31T03:48:29.867Z,100327.31
2022-12-31T03:50:57.311Z,100330.72
2022-12-31T03:53:24.866Z,100328.09
2022-12-31T03:55:55.209Z,100328.59
2022-12-31T03:58:22.749Z,100330.69
2022-12-31T04:00:50.702Z,100325.97
2022-12-31T04:03:18.367Z,100324.38
2022-12-31T04:05:46.095Z,100314.97
2022-12-31T04:08:13.556Z,100318.38
2022-12-31T04:10:41.113Z,100327.25
2022-12-31T04:13:08.849Z,100322.56
2022-12-31T04:15:36.135Z,100321.72
2022-12-31T04:18:04.038Z,100326.41
2022-12-31T04:20:31.540Z,100340.19
2022-12-31T04:22:59.102Z,100340.97
2022-12-31T04:25:26.880Z,100346.44
2022-12-31T04:27:54.389Z,100347.22
2022-12-31T04:30:22.110Z,100352.97
2022-12-31T04:32:49.684Z,100350.34
2022-12-31T04:35:17.137Z,100358.19
2022-12-31T04:37:44.992Z,100363.38
2022-12-31T04:40:13.016Z,100355.56
2022-12-31T04:42:40.238Z,100367.50
2022-12-31T04:45:08.267Z,100367.47
2022-12-31T04:47:35.534Z,100367.47
2022-12-31T04:50:03.240Z,100368.78
2022-12-31T04:52:30.683Z,100375.81
2022-12-31T04:54:58.154Z,100392.53
2022-12-31T04:57:25.770Z,100394.06
2022-12-31T04:59:53.121Z,100401.63
2022-12-31T05:02:20.817Z,100402.47
2022-12-31T05:04:48.128Z,100400.91
2022-12-31T05:07:15.518Z,100406.13
2022-12-31T05:09:43.125Z,100409.78
2022-12-31T05:12:10.255Z,100396.50
2022-12-31T05:14:37.870Z,100398.09
2022-12-31T05:17:05.309Z,100402.53
2022-12-31T05:19:32.900Z,100401.00
2022-12-31T05:22:19.098Z,100414.03
2022-12-31T05:24:46.451Z,100408.75
2022-12-31T05:27:14.150Z,100419.19
2022-12-31T05:29:41.266Z,100414.50
2022-12-31T05:32:08.441Z,100413.72
2022-12-31T05:34:36.024Z,100420.22
2022-12-31T05:37:03.793Z,100428.56
2022-12-31T05:39:31.281Z,100429.59
2022-12-31T05:41:59.029Z,100421.53
2022-12-31T05:44:26.288Z,100429.06
2022-12-31T05:46:53.715Z,100428.56
2022-12-31T05:49:21.279Z,100423.34
2022-12-31T05:51:48.488Z,100423.34
2022-12-31T05:54:16.151Z,100435.59
2022-12-31T05:56:43.367Z,100432.19
2022-12-31T05:59:11.284Z,100440.25
2022-12-31T06:01:39.078Z,100437.91
2022-12-31T06:04:06.921Z,100451.44
2022-12-31T06:06:34.528Z,100446.22
2022-12-31T06:09:02.111Z,100423.81
2022-12-31T06:11:30.043Z,100427.94
2022-12-31T06:13:58.482Z,100427.47
2022-12-31T06:16:25.928Z,100437.88
2022-12-31T06:18:53.571Z,100434.75
2022-12-31T06:21:21.834Z,100435.53
2022-12-31T06:23:49.449Z,100436.81
2022-12-31T06:26:17.163Z,100444.91
2022-12-31T06:28:44.732Z,100443.84
2022-12-31T06:31:13.652Z,100446.22
2022-12-31T06:33:41.324Z,100432.69
2022-12-31T06:36:11.168Z,100443.38
2022-12-31T06:38:40.950Z,100440.25
2022-12-31T06:41:10.603Z,100441.31
2022-12-31T06:43:39.040Z,100443.91
2022-12-31T06:46:09.117Z,100448.38
2022-12-31T06:48:37.163Z,100451.25
2022-12-31T06:51:06.679Z,100456.75
2022-12-31T06:53:36.319Z,100448.94
2022-12-31T06:56:14.322Z,100453.59
2022-12-31T06:58:42.323Z,100462.47
2022-12-31T07:01:43.329Z,100458.28
2022-12-31T07:04:32.083Z,100469.25
2022-12-31T07:07:05.749Z,100474.22
2022-12-31T07:09:54.066Z,100479.16
2022-12-31T07:12:43.091Z,100472.88
2022-12-31T07:15:35.333Z,100474.19
2022-12-31T07:18:07.154Z,100481.25
2022-12-31T07:20:35.308Z,100485.94
2022-12-31T07:23:03.338Z,100485.19
2022-12-31T07:25:31.338Z,100481.78
2022-12-31T07:28:22.449Z,100474.78
2022-12-31T07:31:01.493Z,100469.81
2022-12-31T07:33:40.958Z,100474.22
2022-12-31T07:36:28.095Z,100479.19
2022-12-31T07:39:06.291Z,100490.34
2022-12-31T07:45:01.358Z,100498.22
2022-12-31T07:47:29.697Z,100498.47
2022-12-31T07:49:58.104Z,100495.31
2022-12-31T07:52:26.109Z,100491.63
2022-12-31T07:54:53.330Z,100500.47
2022-12-31T07:57:21.851Z,100502.00
2022-12-31T08:00:11.203Z,100502.53
2022-12-31T08:03:14.380Z,100507.19
2022-12-31T08:06:11.170Z,100520.19
2022-12-31T08:09:03.115Z,100527.66
2022-12-31T08:11:36.784Z,100518.72
2022-12-31T08:14:04.785Z,100519.44
2022-12-31T08:16:32.816Z,100532.47
2022-12-31T08:19:01.143Z,100541.31
2022-12-31T08:21:41.210Z,100533.19
2022-12-31T08:24:09.123Z,100541.47
2022-12-31T08:26:53.057Z,100547.72
2022-12-31T08:29:35.127Z,100555.53
2022-12-31T08:32:25.572Z,100556.31
2022-12-31T08:35:06.796Z,100557.13
2022-12-31T08:37:40.384Z,100571.53
2022-12-31T08:40:08.387Z,100573.66
2022-12-31T08:42:45.231Z,100568.97
2022-12-31T08:45:39.190Z,100576.31
2022-12-31T08:48:36.300Z,100574.69
2022-12-31T08:51:04.137Z,100571.56
2022-12-31T08:53:33.148Z,100588.75
2022-12-31T08:56:07.901Z,100589.25
2022-12-31T08:59:08.147Z,100597.00
2022-12-31T09:02:02.500Z,100590.66
2022-12-31T09:04:42.020Z,100582.69
2022-12-31T09:07:12.126Z,100579.44
2022-12-31T09:09:56.411Z,100578.56
2022-12-31T09:12:38.623Z,100576.09
2022-12-31T09:15:16.099Z,100571.28
2022-12-31T09:17:45.147Z,100565.00
2022-12-31T09:20:26.235Z,100566.22
2022-12-31T09:22:55.151Z,100559.66
2022-12-31T09:25:23.596Z,100558.59
2022-12-31T09:28:23.571Z,100561.22
2022-12-31T09:30:54.155Z,100550.75
2022-12-31T09:33:24.337Z,100553.84
2022-12-31T09:35:58.160Z,100539.38
2022-12-31T09:38:34.012Z,100534.47
2022-12-31T09:41:14.166Z,100529.75
2022-12-31T09:44:00.928Z,100529.38
2022-12-31T09:46:53.745Z,100537.75
2022-12-31T09:49:36.050Z,100524.66
2022-12-31T09:52:28.462Z,100520.53
2022-12-31T09:55:31.280Z,100520.75
2022-12-31T09:58:17.434Z,100520.00
2022-12-31T10:00:52.476Z,100505.06
2022-12-31T10:03:32.402Z,100513.06
2022-12-31T10:06:05.069Z,100527.56
2022-12-31T10:08:48.087Z,100526.03
2022-12-31T10:11:22.443Z,100522.44
2022-12-31T10:13:59.168Z,100526.81
2022-12-31T10:17:03.052Z,100522.91
2022-12-31T10:19:30.445Z,100529.13
2022-12-31T10:22:28.281Z,100517.38
2022-12-31T10:25:39.580Z,100501.16
2022-12-31T10:28:45.444Z,100520.91
2022-12-31T10:31:37.882Z,100510.03
2022-12-31T10:34:26.757Z,100508.47
2022-12-31T10:36:59.178Z,100523.22
2022-12-31T10:40:04.872Z,100533.94
2022-12-31T10:42:52.967Z,100515.19
2022-12-31T10:46:01.916Z,100517.78
2022-12-31T10:48:44.463Z,100524.09
2022-12-31T10:51:33.858Z,100523.09
2022-12-31T10:54:25.860Z,100518.91
2022-12-31T10:57:15.430Z,100521.13
2022-12-31T11:00:04.190Z,100512.75
2022-12-31T11:02:40.981Z,100516.34
2022-12-31T11:05:39.164Z,100510.63
2022-12-31T11:08:44.052Z,100516.34
2022-12-31T11:11:42.196Z,100518.22
2022-12-31T11:14:40.194Z,100506.09
2022-12-31T11:17:31.969Z,100505.81
2022-12-31T11:20:15.528Z,100500.78
2022-12-31T11:23:14.029Z,100516.56
2022-12-31T11:25:54.195Z,100505.34
2022-12-31T11:28:24.180Z,100508.09
2022-12-31T11:30:51.854Z,100507.75
2022-12-31T11:33:37.979Z,100509.47
2022-12-31T11:36:35.192Z,100513.78
2022-12-31T11:39:09.202Z,100513.13
2022-12-31T11:41:47.208Z,100499.03
2022-12-31T11:44:33.322Z,100489.50
2022-12-31T11:48:28.029Z,100480.22
2022-12-31T11:51:01.503Z,100486.66
2022-12-31T11:53:35.229Z,100495.38
2022-12-31T11:56:20.325Z,100502.88
2022-12-31T11:58:52.867Z,100510.16
2022-12-31T12:01:56.352Z,100511.13
2022-12-31T12:04:23.990Z,100514.22
2022-12-31T12:06:52.401Z,100518.88
2022-12-31T12:09:29.199Z,100508.28
2022-12-31T12:12:02.546Z,100514.03
2022-12-31T12:14:43.078Z,100513.34
2022-12-31T12:17:15.166Z,100517.69
2022-12-31T12:19:46.019Z,100514.88
2022-12-31T12:22:19.217Z,100517.91
2022-12-31T12:24:55.341Z,100508.56
2022-12-31T12:27:25.220Z,100512.41
2022-12-31T12:29:53.469Z,100518.88
2022-12-31T12:32:25.221Z,100514.44
2022-12-31T12:34:53.633Z,100511.34
2022-12-31T12:37:30.498Z,100503.00
2022-12-31T12:40:06.915Z,100502.44
2022-12-31T12:42:34.908Z,100502.44
2022-12-31T12:45:16.543Z,100504.19
2022-12-31T12:47:45.228Z,100493.66
2022-12-31T12:50:22.118Z,100516.38
2022-12-31T12:53:06.229Z,100519.94
2022-12-31T12:56:05.231Z,100516.78
2022-12-31T12:59:01.918Z,100505.97
2022-12-31T13:01:51.537Z,100516.25
2022-12-31T13:04:38.357Z,100497.84
2022-12-31T13:07:11.844Z,100496.19
2022-12-31T13:09:48.424Z,100493.06
2022-12-31T13:12:37.909Z,100488.41
2022-12-31T13:15:21.255Z,100505.84
2022-12-31T13:18:13.359Z,100516.47
2022-12-31T13:20:57.500Z,100503.56
2022-12-31T13:23:42.932Z,100506.28
2022-12-31T13:26:21.243Z,100501.56
2022-12-31T13:28:49.420Z,100504.69
2022-12-31T13:31:20.574Z,100505.97
2022-12-31T13:33:52.297Z,100509.66
2022-12-31T13:36:25.559Z,100508.31
2022-12-31T13:38:55.225Z,100498.97
2022-12-31T13:41:31.249Z,100501.50
2022-12-31T13:44:21.194Z,100509.19
2022-12-31T13:46:57.250Z,100518.16
2022-12-31T13:49:47.120Z,100522.22
2022-12-31T13:52:31.380Z,100515.91
2022-12-31T13:55:02.258Z,100517.75
2022-12-31T13:58:02.548Z,100517.38
2022-12-31T14:00:42.356Z,100524.94
2022-12-31T14:03:40.051Z,100531.81
2022-12-31T14:06:37.397Z,100534.69
2022-12-31T14:09:06.267Z,100537.31
2022-12-31T14:12:12.396Z,100543.34
2022-12-31T14:14:54.261Z,100526.97
2022-12-31T14:17:31.402Z,100536.41
2022-12-31T14:20:29.599Z,100534.84
2022-12-31T14:23:28.265Z,100546.78
2022-12-31T14:26:00.268Z,100541.47
2022-12-31T14:28:46.456Z,100538.63
2022-12-31T14:31:36.388Z,100541.53
2022-12-31T14:34:19.584Z,100530.50
2022-12-31T14:37:19.353Z,100533.69
2022-12-31T14:40:02.229Z,100526.91
2022-12-31T14:42:53.572Z,100520.66
2022-12-31T14:45:40.610Z,100533.19
2022-12-31T14:48:26.967Z,100533.28
2022-12-31T14:50:54.360Z,100528.63
2022-12-31T14:53:26.469Z,100527.88
2022-12-31T14:56:30.576Z,100529.53
2022-12-31T14:59:02.384Z,100544.88
2022-12-31T15:01:30.526Z,100532.81
2022-12-31T15:03:58.980Z,100535.16
2022-12-31T15:06:26.490Z,100533.91
2022-12-31T15:09:08.308Z,100537.25
2022-12-31T15:12:11.547Z,100541.25
2022-12-31T15:15:05.095Z,100541.31
2022-12-31T15:17:51.292Z,100539.75
2022-12-31T15:20:53.427Z,100537.72
2022-12-31T15:23:25.287Z,100537.78
2022-12-31T15:25:59.200Z,100533.50
2022-12-31T15:28:34.360Z,100538.09
2022-12-31T15:31:05.473Z,100543.91
2022-12-31T15:33:37.615Z,100561.19
2022-12-31T15:36:20.399Z,100562.16
2022-12-31T15:38:49.394Z,100570.75
2022-12-31T15:41:29.387Z,100570.19
2022-12-31T15:44:21.169Z,100577.47
2022-12-31T15:46:53.456Z,100576.69
2022-12-31T15:49:25.321Z,100571.75
2022-12-31T15:52:15.816Z,100575.41
2022-12-31T15:54:45.402Z,100577.25
2022-12-31T15:57:18.001Z,100567.81
2022-12-31T15:59:46.324Z,100563.88
2022-12-31T16:02:23.738Z,100572.50
2022-12-31T16:04:51.624Z,100566.97
2022-12-31T16:07:19.309Z,100565.13
2022-12-31T16:09:55.008Z,100566.50
2022-12-31T16:12:32.655Z,100565.72
2022-12-31T16:15:02.381Z,100569.66
2022-12-31T16:17:35.634Z,100566.84
2022-12-31T16:20:25.218Z,100553.72
2022-12-31T16:22:56.416Z,100545.47
2022-12-31T16:25:33.396Z,100548.25
2022-12-31T16:28:02.575Z,100545.69
2022-12-31T16:30:36.210Z,100547.78
2022-12-31T16:33:06.334Z,100544.75
2022-12-31T16:35:39.031Z,100560.81
2022-12-31T16:38:17.633Z,100563.56
2022-12-31T16:41:05.260Z,100561.84
2022-12-31T16:43:40.317Z,100569.31
2022-12-31T16:46:27.461Z,100564.50
2022-12-31T16:48:57.643Z,100566.66
2022-12-31T16:51:31.638Z,100558.13
2022-12-31T16:54:00.034Z,100555.06
2022-12-31T16:56:36.418Z,100553.84
2022-12-31T16:59:07.592Z,100544.75
2022-12-31T17:01:37.414Z,100557.63
2022-12-31T17:04:08.346Z,100567.84
2022-12-31T17:06:36.158Z,100573.41
2022-12-31T17:09:22.414Z,100567.16
2022-12-31T17:11:50.746Z,100556.94
2022-12-31T17:14:20.644Z,100568.09
2022-12-31T17:17:07.333Z,100570.72
2022-12-31T17:19:37.567Z,100568.66
2022-12-31T17:22:08.041Z,100568.41
2022-12-31T17:24:35.611Z,100577.03
2022-12-31T17:27:05.334Z,100580.97
2022-12-31T17:29:34.053Z,100584.63
2022-12-31T17:32:25.651Z,100593.53
2022-12-31T17:34:53.337Z,100578.41
2022-12-31T17:37:28.867Z,100582.09
2022-12-31T17:42:49.345Z,100594.63
2022-12-31T17:45:20.677Z,100594.91
2022-12-31T17:47:51.352Z,100593.13
2022-12-31T17:50:22.497Z,100595.50
2022-12-31T17:52:50.055Z,100591.56
2022-12-31T17:55:17.373Z,100585.06
2022-12-31T17:58:04.664Z,100581.22
2022-12-31T18:00:33.831Z,100571.59
2022-12-31T18:03:01.377Z,100567.22
2022-12-31T18:05:29.072Z,100569.06
2022-12-31T18:07:56.441Z,100564.75
2022-12-31T18:10:25.435Z,100578.38
2022-12-31T18:12:53.303Z,100579.47
2022-12-31T18:15:23.451Z,100584.22
2022-12-31T18:17:51.436Z,100595.47
2022-12-31T18:20:19.388Z,100588.72
2022-12-31T18:22:47.074Z,100588.75
2022-12-31T18:25:20.186Z,100598.38
2022-12-31T18:27:48.441Z,100596.81
2022-12-31T18:30:19.446Z,100596.06
2022-12-31T18:32:47.338Z,100602.03
2022-12-31T18:36:06.559Z,100608.81
2022-12-31T18:38:12.598Z,100619.44
2022-12-31T18:40:43.081Z,100621.78
2022-12-31T18:43:18.082Z,100624.63
2022-12-31T18:45:47.363Z,100619.88
2022-12-31T18:48:15.456Z,100619.59
2022-12-31T18:50:43.467Z,100619.03
2022-12-31T18:53:19.417Z,100622.44
2022-12-31T18:55:50.606Z,100621.63
2022-12-31T18:58:18.465Z,100627.09
2022-12-31T19:00:47.282Z,100623.66
2022-12-31T19:03:19.573Z,100625.75
2022-12-31T19:05:51.344Z,100613.69
2022-12-31T19:08:20.684Z,100622.09
2022-12-31T19:10:49.477Z,100632.00
2022-12-31T19:13:18.776Z,100622.81
2022-12-31T19:15:53.684Z,100622.56
2022-12-31T19:18:21.700Z,100618.63
2022-12-31T19:20:49.376Z,100615.78
2022-12-31T19:23:19.771Z,100624.97
2022-12-31T19:25:48.222Z,100615.56
2022-12-31T19:28:23.795Z,100625.00
2022-12-31T19:30:51.479Z,100623.97
2022-12-31T19:33:19.717Z,100620.09
2022-12-31T19:35:47.693Z,100620.13
2022-12-31T19:38:24.261Z,100611.75
2022-12-31T19:40:53.481Z,100618.88
2022-12-31T19:43:23.800Z,100610.25
2022-12-31T19:45:52.520Z,100611.31
2022-12-31T19:48:25.853Z,100617.59
2022-12-31T19:50:57.798Z,100615.47
2022-12-31T19:53:27.264Z,100609.22
2022-12-31T19:55:54.801Z,100595.38
2022-12-31T19:58:25.690Z,100593.56
2022-12-31T20:01:01.050Z,100592.50
2022-12-31T20:03:29.782Z,100591.97
2022-12-31T20:06:05.012Z,100587.03
2022-12-31T20:08:33.492Z,100585.75
2022-12-31T20:11:12.376Z,100586.28
2022-12-31T20:13:40.896Z,100580.59
2022-12-31T20:16:10.375Z,100575.38
2022-12-31T20:18:39.461Z,100575.63
2022-12-31T20:21:12.489Z,100569.13
2022-12-31T20:23:40.122Z,100580.09
2022-12-31T20:26:07.825Z,100582.72
2022-12-31T20:28:36.712Z,100592.13
2022-12-31T20:31:13.773Z,100585.88
2022-12-31T20:33:41.730Z,100591.66
2022-12-31T20:36:11.380Z,100595.03
2022-12-31T20:38:39.385Z,100590.63
2022-12-31T20:41:12.501Z,100603.44
2022-12-31T20:43:40.498Z,100597.22
2022-12-31T20:46:14.808Z,100606.06
2022-12-31T20:48:44.712Z,100590.47
2022-12-31T20:51:13.732Z,100583.44
2022-12-31T20:53:46.717Z,100600.09
2022-12-31T20:56:15.271Z,100598.56
2022-12-31T20:58:42.723Z,100599.59
2022-12-31T21:01:11.684Z,100591.28
2022-12-31T21:06:30.758Z,100592.31
2022-12-31T21:08:59.523Z,100602.72
2022-12-31T21:11:46.032Z,100594.94
2022-12-31T21:14:13.848Z,100601.19
2022-12-31T21:16:41.726Z,100587.63
2022-12-31T21:19:10.168Z,100599.09
2022-12-31T21:21:38.174Z,100597.53
2022-12-31T21:24:05.856Z,100599.59
2022-12-31T21:26:34.664Z,100607.69
2022-12-31T21:29:02.522Z,100610.06
2022-12-31T21:31:30.580Z,100616.28
2022-12-31T21:33:58.452Z,100631.16
2022-12-31T21:36:25.868Z,100629.84
2022-12-31T21:38:53.527Z,100639.75
2022-12-31T21:41:39.382Z,100637.13
2022-12-31T21:44:07.531Z,100635.84
2022-12-31T21:46:35.211Z,100632.44
2022-12-31T21:49:03.180Z,100638.16
2022-12-31T21:51:30.739Z,100643.63
2022-12-31T21:53:58.590Z,100641.81
2022-12-31T21:56:26.178Z,100636.56
2022-12-31T21:59:16.547Z,100645.97
2022-12-31T22:02:02.740Z,100639.72
2022-12-31T22:07:17.828Z,100639.72
2022-12-31T22:09:45.458Z,100648.06
2022-12-31T22:12:13.256Z,100652.25
2022-12-31T22:15:15.015Z,100643.13
2022-12-31T22:17:28.585Z,100647.56
2022-12-31T22:22:44.545Z,100645.47
2022-12-31T22:25:12.331Z,100642.06
2022-12-31T22:27:39.747Z,100641.81
2022-12-31T22:30:08.559Z,100640.78
2022-12-31T22:32:37.188Z,100634.78
2022-12-31T22:35:05.134Z,100626.16
2022-12-31T22:37:56.116Z,100624.59
2022-12-31T22:40:20.642Z,100625.59
2022-12-31T22:42:48.182Z,100621.44
2022-12-31T22:45:15.754Z,100621.66
2022-12-31T22:47:43.564Z,100634.91
2022-12-31T22:50:11.108Z,100629.97
2022-12-31T22:52:38.715Z,100625.03
2022-12-31T22:55:07.224Z,100626.31
2022-12-31T22:57:34.758Z,100622.66
2022-12-31T23:00:02.644Z,100620.31
2022-12-31T23:02:31.227Z,100616.91
2022-12-31T23:05:15.453Z,100612.22
2022-12-31T23:07:43.933Z,100605.19
2022-12-31T23:10:30.570Z,100604.41
2022-12-31T23:13:19.569Z,100600.50
2022-12-31T23:16:05.811Z,100599.97
2022-12-31T23:18:52.351Z,100600.50
2022-12-31T23:21:38.634Z,100601.78
2022-12-31T23:24:10.055Z,100601.00
2022-12-31T23:26:44.581Z,100601.53
2022-12-31T23:29:11.914Z,100610.88
2022-12-31T23:31:39.852Z,100604.34
2022-12-31T23:34:08.662Z,100611.88
2022-12-31T23:36:36.551Z,100610.28
2022-12-31T23:39:04.215Z,100612.66
2022-12-31T23:41:31.814Z,100610.84
2022-12-31T23:43:59.597Z,100618.38
2022-12-31T23:46:27.373Z,100610.03
2022-12-31T23:48:54.665Z,100621.47
2022-12-31T23:51:22.459Z,100625.09
2022-12-31T23:53:51.654Z,100612.84
2022-12-31T23:56:23.579Z,100608.41
2022-12-31T23:58:58.959Z,100614.63
